Decoded Metar for LFBZ (BIARRITZ-BAYONNE in FRANCE) (IATA:BIQ) | Meteo·Mobile Aviation Weather
aviador You're here:

LFBZ Decoded Metar

BIARRITZ-BAYONNE in FRANCE
Report Time2018-10-18 15:00:00
UTC Time2018-10-18 15:30:14
Flight Rules ifr IFR
Wind290° at 06 kt
W.Decomp.*RWY 27: 5.6 kt HW 2.2 kt RCW
W.Rank290° ranks 2
Current wind is below 290° avg. (10.1)
Visibility8000 m
Phenomena:Light Rain
Clouds:Broken 007 Hf
Broken 034 Hf
Broken 047 Hf
Expected CloudBase > 800 ft AGL from Temp-Dew spread
Ceiling700 ft
Temp18°C (ISA +3)
Dew Point16°C (88% RH)
AAT17.8°C
QNH1015 hPa
Density Alt814 ft
Elevation233 ft
Report Wrong Elevation
Raw Report
LFBZ 181500Z AUTO 29006KT 8000 BKN007 BKN034 BKN047 18/16 Q1015
TEMPO 4000 -RA BR=

Extra information for LFBZ:More info

Metar Taf Metar & Taf Last 4 Metars F.Rules Stats Wind Profile Meteogram Temp Stats Airport Information Weather charts Add Link Nearby VenuesMetar ALERT Operation Metar Decoded Social comments